sensor_id;sensor_type;location;lat;lon;timestamp;P1;durP1;ratioP1;P2;durP2;ratioP2
5646;SDS011;2845;48.626;9.362;2024-03-23T00:54:14;4.22;;;1.73;;
5646;SDS011;2845;48.626;9.362;2024-03-23T00:56:46;5.35;;;1.98;;
5646;SDS011;2845;48.626;9.362;2024-03-23T00:59:19;5.05;;;1.88;;
5646;SDS011;2845;48.626;9.362;2024-03-23T01:01:53;3.85;;;1.80;;
5646;SDS011;2845;48.626;9.362;2024-03-23T01:04:26;3.58;;;1.60;;
5646;SDS011;2845;48.626;9.362;2024-03-23T01:07:00;3.55;;;1.60;;
5646;SDS011;2845;48.626;9.362;2024-03-23T01:09:33;4.57;;;1.70;;
5646;SDS011;2845;48.626;9.362;2024-03-23T01:12:05;4.50;;;2.28;;
5646;SDS011;2845;48.626;9.362;2024-03-23T01:14:39;5.90;;;2.03;;
5646;SDS011;2845;48.626;9.362;2024-03-23T01:17:11;3.10;;;1.20;;
5646;SDS011;2845;48.626;9.362;2024-03-23T01:19:44;3.22;;;1.60;;
5646;SDS011;2845;48.626;9.362;2024-03-23T01:22:17;6.80;;;1.77;;
5646;SDS011;2845;48.626;9.362;2024-03-23T01:24:50;3.92;;;1.75;;
5646;SDS011;2845;48.626;9.362;2024-03-23T01:27:23;5.07;;;2.38;;
5646;SDS011;2845;48.626;9.362;2024-03-23T01:29:56;5.40;;;2.20;;
5646;SDS011;2845;48.626;9.362;2024-03-23T01:32:28;3.80;;;2.03;;
5646;SDS011;2845;48.626;9.362;2024-03-23T01:35:01;6.18;;;2.05;;
5646;SDS011;2845;48.626;9.362;2024-03-23T01:37:36;5.97;;;1.75;;
5646;SDS011;2845;48.626;9.362;2024-03-23T01:40:10;3.47;;;1.63;;
5646;SDS011;2845;48.626;9.362;2024-03-23T01:42:54;2.97;;;1.27;;
5646;SDS011;2845;48.626;9.362;2024-03-23T01:45:28;4.75;;;1.75;;
5646;SDS011;2845;48.626;9.362;2024-03-23T01:48:01;3.25;;;1.38;;
5646;SDS011;2845;48.626;9.362;2024-03-23T01:50:35;3.53;;;1.50;;
5646;SDS011;2845;48.626;9.362;2024-03-23T01:53:08;3.92;;;1.35;;
5646;SDS011;2845;48.626;9.362;2024-03-23T01:55:42;3.08;;;1.50;;
5646;SDS011;2845;48.626;9.362;2024-03-23T01:58:14;5.53;;;1.80;;
5646;SDS011;2845;48.626;9.362;2024-03-23T02:00:47;3.83;;;2.08;;
5646;SDS011;2845;48.626;9.362;2024-03-23T02:03:23;3.25;;;1.50;;
5646;SDS011;2845;48.626;9.362;2024-03-23T02:05:57;3.08;;;1.45;;
5646;SDS011;2845;48.626;9.362;2024-03-23T02:08:30;4.50;;;1.85;;
5646;SDS011;2845;48.626;9.362;2024-03-23T02:11:04;1.88;;;1.00;;
5646;SDS011;2845;48.626;9.362;2024-03-23T02:13:36;4.88;;;1.90;;
5646;SDS011;2845;48.626;9.362;2024-03-23T02:16:09;6.22;;;2.42;;
5646;SDS011;2845;48.626;9.362;2024-03-23T02:18:41;5.32;;;2.15;;
5646;SDS011;2845;48.626;9.362;2024-03-23T02:21:15;3.72;;;1.58;;
5646;SDS011;2845;48.626;9.362;2024-03-23T02:23:48;3.55;;;1.77;;
5646;SDS011;2845;48.626;9.362;2024-03-23T02:26:21;4.57;;;1.80;;
5646;SDS011;2845;48.626;9.362;2024-03-23T02:28:54;2.53;;;1.40;;
5646;SDS011;2845;48.626;9.362;2024-03-23T02:31:27;3.63;;;1.60;;
5646;SDS011;2845;48.626;9.362;2024-03-23T02:33:59;4.35;;;1.60;;
5646;SDS011;2845;48.626;9.362;2024-03-23T02:36:32;3.92;;;1.48;;
5646;SDS011;2845;48.626;9.362;2024-03-23T02:39:05;3.05;;;1.27;;
5646;SDS011;2845;48.626;9.362;2024-03-23T02:41:39;5.93;;;1.67;;
5646;SDS011;2845;48.626;9.362;2024-03-23T02:44:11;3.25;;;1.60;;
5646;SDS011;2845;48.626;9.362;2024-03-23T02:46:45;2.10;;;1.27;;
5646;SDS011;2845;48.626;9.362;2024-03-23T02:49:17;3.03;;;1.35;;
5646;SDS011;2845;48.626;9.362;2024-03-23T02:51:52;3.67;;;1.40;;
5646;SDS011;2845;48.626;9.362;2024-03-23T02:54:26;1.42;;;1.00;;
5646;SDS011;2845;48.626;9.362;2024-03-23T02:56:59;3.92;;;1.52;;
5646;SDS011;2845;48.626;9.362;2024-03-23T02:59:31;4.07;;;1.45;;
5646;SDS011;2845;48.626;9.362;2024-03-23T03:02:04;3.00;;;1.27;;
5646;SDS011;2845;48.626;9.362;2024-03-23T03:04:37;4.07;;;1.70;;
5646;SDS011;2845;48.626;9.362;2024-03-23T03:07:10;4.95;;;1.40;;
5646;SDS011;2845;48.626;9.362;2024-03-23T03:09:43;3.50;;;1.38;;
5646;SDS011;2845;48.626;9.362;2024-03-23T03:12:16;6.88;;;1.52;;
5646;SDS011;2845;48.626;9.362;2024-03-23T03:14:49;5.65;;;1.70;;
5646;SDS011;2845;48.626;9.362;2024-03-23T03:17:22;3.47;;;1.50;;
5646;SDS011;2845;48.626;9.362;2024-03-23T03:19:54;3.55;;;1.45;;
5646;SDS011;2845;48.626;9.362;2024-03-23T03:22:27;5.70;;;1.50;;
5646;SDS011;2845;48.626;9.362;2024-03-23T03:25:01;4.25;;;1.13;;
5646;SDS011;2845;48.626;9.362;2024-03-23T03:27:34;6.22;;;2.08;;
5646;SDS011;2845;48.626;9.362;2024-03-23T03:30:07;4.90;;;1.95;;
5646;SDS011;2845;48.626;9.362;2024-03-23T03:32:41;2.75;;;1.20;;
5646;SDS011;2845;48.626;9.362;2024-03-23T03:35:13;2.95;;;1.40;;
5646;SDS011;2845;48.626;9.362;2024-03-23T03:37:46;2.90;;;1.35;;
5646;SDS011;2845;48.626;9.362;2024-03-23T03:40:20;4.80;;;1.50;;
5646;SDS011;2845;48.626;9.362;2024-03-23T03:42:53;3.45;;;1.48;;
5646;SDS011;2845;48.626;9.362;2024-03-23T03:45:25;2.67;;;1.20;;
5646;SDS011;2845;48.626;9.362;2024-03-23T03:47:58;3.50;;;1.50;;
5646;SDS011;2845;48.626;9.362;2024-03-23T03:50:31;3.05;;;1.50;;
5646;SDS011;2845;48.626;9.362;2024-03-23T03:53:04;2.38;;;1.35;;
5646;SDS011;2845;48.626;9.362;2024-03-23T03:55:37;4.90;;;1.88;;
5646;SDS011;2845;48.626;9.362;2024-03-23T03:58:11;4.05;;;1.92;;
5646;SDS011;2845;48.626;9.362;2024-03-23T04:00:43;4.20;;;1.80;;
5646;SDS011;2845;48.626;9.362;2024-03-23T04:03:16;4.60;;;1.95;;
5646;SDS011;2845;48.626;9.362;2024-03-23T04:05:51;3.80;;;1.55;;
5646;SDS011;2845;48.626;9.362;2024-03-23T04:08:25;4.72;;;1.65;;
5646;SDS011;2845;48.626;9.362;2024-03-23T04:10:58;3.42;;;1.00;;
5646;SDS011;2845;48.626;9.362;2024-03-23T04:13:31;4.53;;;1.27;;
5646;SDS011;2845;48.626;9.362;2024-03-23T04:16:04;3.22;;;1.15;;
5646;SDS011;2845;48.626;9.362;2024-03-23T04:18:38;2.72;;;1.38;;
5646;SDS011;2845;48.626;9.362;2024-03-23T04:21:10;2.25;;;0.82;;
5646;SDS011;2845;48.626;9.362;2024-03-23T04:23:43;2.35;;;1.10;;
5646;SDS011;2845;48.626;9.362;2024-03-23T04:26:16;2.83;;;0.85;;
5646;SDS011;2845;48.626;9.362;2024-03-23T04:28:50;3.80;;;1.17;;
5646;SDS011;2845;48.626;9.362;2024-03-23T04:31:22;2.20;;;0.98;;
5646;SDS011;2845;48.626;9.362;2024-03-23T04:33:55;1.80;;;1.00;;
5646;SDS011;2845;48.626;9.362;2024-03-23T04:36:27;2.58;;;0.80;;
5646;SDS011;2845;48.626;9.362;2024-03-23T04:39:00;1.75;;;1.05;;
5646;SDS011;2845;48.626;9.362;2024-03-23T04:41:35;3.25;;;1.08;;
5646;SDS011;2845;48.626;9.362;2024-03-23T04:44:08;1.83;;;0.82;;
5646;SDS011;2845;48.626;9.362;2024-03-23T04:46:41;1.25;;;0.80;;
5646;SDS011;2845;48.626;9.362;2024-03-23T04:49:14;2.78;;;1.30;;
5646;SDS011;2845;48.626;9.362;2024-03-23T04:51:47;2.20;;;1.10;;
5646;SDS011;2845;48.626;9.362;2024-03-23T04:54:21;5.25;;;1.55;;
5646;SDS011;2845;48.626;9.362;2024-03-23T04:56:55;2.50;;;0.70;;
5646;SDS011;2845;48.626;9.362;2024-03-23T04:59:28;2.35;;;1.10;;
5646;SDS011;2845;48.626;9.362;2024-03-23T05:02:01;2.33;;;0.88;;
5646;SDS011;2845;48.626;9.362;2024-03-23T05:04:35;2.33;;;0.95;;
5646;SDS011;2845;48.626;9.362;2024-03-23T05:07:08;2.55;;;1.30;;
5646;SDS011;2845;48.626;9.362;2024-03-23T05:09:42;2.80;;;1.00;;
5646;SDS011;2845;48.626;9.362;2024-03-23T05:12:15;2.58;;;1.10;;
5646;SDS011;2845;48.626;9.362;2024-03-23T05:14:49;2.20;;;1.02;;
5646;SDS011;2845;48.626;9.362;2024-03-23T05:17:21;3.53;;;1.30;;
5646;SDS011;2845;48.626;9.362;2024-03-23T05:19:54;3.15;;;1.10;;
5646;SDS011;2845;48.626;9.362;2024-03-23T05:22:26;1.85;;;1.17;;
5646;SDS011;2845;48.626;9.362;2024-03-23T05:24:59;3.30;;;1.45;;
5646;SDS011;2845;48.626;9.362;2024-03-23T05:27:33;3.47;;;1.45;;
5646;SDS011;2845;48.626;9.362;2024-03-23T05:30:07;2.92;;;1.40;;
5646;SDS011;2845;48.626;9.362;2024-03-23T05:32:40;1.80;;;0.93;;
5646;SDS011;2845;48.626;9.362;2024-03-23T05:35:13;4.60;;;1.52;;
5646;SDS011;2845;48.626;9.362;2024-03-23T05:37:46;4.47;;;1.58;;
5646;SDS011;2845;48.626;9.362;2024-03-23T05:40:19;3.67;;;1.90;;
5646;SDS011;2845;48.626;9.362;2024-03-23T05:42:52;5.03;;;2.15;;
5646;SDS011;2845;48.626;9.362;2024-03-23T05:45:27;5.00;;;2.08;;
5646;SDS011;2845;48.626;9.362;2024-03-23T05:47:59;3.95;;;2.10;;
5646;SDS011;2845;48.626;9.362;2024-03-23T05:50:32;6.25;;;2.55;;
5646;SDS011;2845;48.626;9.362;2024-03-23T05:53:04;4.82;;;2.25;;
5646;SDS011;2845;48.626;9.362;2024-03-23T05:55:37;4.68;;;2.35;;
5646;SDS011;2845;48.626;9.362;2024-03-23T05:58:11;4.75;;;2.50;;
5646;SDS011;2845;48.626;9.362;2024-03-23T06:00:44;5.05;;;2.30;;
5646;SDS011;2845;48.626;9.362;2024-03-23T06:03:16;7.13;;;2.78;;
5646;SDS011;2845;48.626;9.362;2024-03-23T06:05:50;5.40;;;2.20;;
5646;SDS011;2845;48.626;9.362;2024-03-23T06:08:22;3.90;;;2.15;;
5646;SDS011;2845;48.626;9.362;2024-03-23T06:10:56;5.50;;;2.47;;
5646;SDS011;2845;48.626;9.362;2024-03-23T06:13:29;5.75;;;2.20;;
5646;SDS011;2845;48.626;9.362;2024-03-23T06:16:03;4.90;;;1.77;;
5646;SDS011;2845;48.626;9.362;2024-03-23T06:18:36;3.97;;;1.92;;
5646;SDS011;2845;48.626;9.362;2024-03-23T06:21:13;4.20;;;2.00;;
5646;SDS011;2845;48.626;9.362;2024-03-23T06:23:45;4.82;;;1.98;;
5646;SDS011;2845;48.626;9.362;2024-03-23T06:26:22;6.18;;;2.63;;
5646;SDS011;2845;48.626;9.362;2024-03-23T06:28:56;3.40;;;1.63;;
5646;SDS011;2845;48.626;9.362;2024-03-23T06:31:29;4.25;;;1.83;;
5646;SDS011;2845;48.626;9.362;2024-03-23T06:34:01;3.58;;;1.70;;
5646;SDS011;2845;48.626;9.362;2024-03-23T06:36:34;4.00;;;1.80;;
5646;SDS011;2845;48.626;9.362;2024-03-23T06:39:07;4.43;;;2.10;;
5646;SDS011;2845;48.626;9.362;2024-03-23T06:41:45;4.63;;;2.17;;
5646;SDS011;2845;48.626;9.362;2024-03-23T06:44:25;4.07;;;1.73;;
5646;SDS011;2845;48.626;9.362;2024-03-23T06:46:58;4.97;;;1.75;;
5646;SDS011;2845;48.626;9.362;2024-03-23T06:49:30;4.53;;;1.67;;
5646;SDS011;2845;48.626;9.362;2024-03-23T06:52:04;2.80;;;1.33;;
5646;SDS011;2845;48.626;9.362;2024-03-23T06:54:36;3.83;;;1.30;;
5646;SDS011;2845;48.626;9.362;2024-03-23T06:57:09;2.85;;;1.00;;
5646;SDS011;2845;48.626;9.362;2024-03-23T06:59:44;2.03;;;0.85;;
5646;SDS011;2845;48.626;9.362;2024-03-23T07:02:17;0.95;;;0.52;;
5646;SDS011;2845;48.626;9.362;2024-03-23T07:04:50;1.05;;;0.50;;
5646;SDS011;2845;48.626;9.362;2024-03-23T07:07:23;1.60;;;0.55;;
5646;SDS011;2845;48.626;9.362;2024-03-23T07:09:55;0.85;;;0.32;;
5646;SDS011;2845;48.626;9.362;2024-03-23T07:12:28;0.90;;;0.32;;
5646;SDS011;2845;48.626;9.362;2024-03-23T07:15:02;0.82;;;0.30;;
5646;SDS011;2845;48.626;9.362;2024-03-23T07:17:36;0.82;;;0.30;;
5646;SDS011;2845;48.626;9.362;2024-03-23T07:20:08;0.63;;;0.20;;
5646;SDS011;2845;48.626;9.362;2024-03-23T07:22:45;0.20;;;0.15;;
5646;SDS011;2845;48.626;9.362;2024-03-23T07:25:17;0.88;;;0.30;;
5646;SDS011;2845;48.626;9.362;2024-03-23T07:27:52;1.65;;;0.25;;
5646;SDS011;2845;48.626;9.362;2024-03-23T07:30:26;0.88;;;0.30;;
5646;SDS011;2845;48.626;9.362;2024-03-23T07:32:59;0.68;;;0.20;;
5646;SDS011;2845;48.626;9.362;2024-03-23T07:35:31;0.73;;;0.20;;
5646;SDS011;2845;48.626;9.362;2024-03-23T07:38:05;0.30;;;0.10;;
5646;SDS011;2845;48.626;9.362;2024-03-23T07:40:37;0.20;;;0.10;;
5646;SDS011;2845;48.626;9.362;2024-03-23T07:43:10;0.65;;;0.20;;
5646;SDS011;2845;48.626;9.362;2024-03-23T07:45:43;0.20;;;0.10;;
5646;SDS011;2845;48.626;9.362;2024-03-23T07:48:25;0.52;;;0.20;;
5646;SDS011;2845;48.626;9.362;2024-03-23T07:50:58;0.45;;;0.20;;
5646;SDS011;2845;48.626;9.362;2024-03-23T07:53:32;0.60;;;0.20;;
5646;SDS011;2845;48.626;9.362;2024-03-23T07:56:05;0.10;;;0.10;;
5646;SDS011;2845;48.626;9.362;2024-03-23T07:58:41;0.10;;;0.08;;
5646;SDS011;2845;48.626;9.362;2024-03-23T08:01:15;0.17;;;0.00;;
5646;SDS011;2845;48.626;9.362;2024-03-23T08:03:49;0.10;;;0.10;;
5646;SDS011;2845;48.626;9.362;2024-03-23T08:06:21;0.32;;;0.10;;
5646;SDS011;2845;48.626;9.362;2024-03-23T08:08:55;0.22;;;0.10;;
5646;SDS011;2845;48.626;9.362;2024-03-23T08:11:31;0.57;;;0.10;;
5646;SDS011;2845;48.626;9.362;2024-03-23T08:14:06;1.05;;;0.40;;
5646;SDS011;2845;48.626;9.362;2024-03-23T08:16:39;0.47;;;0.10;;
5646;SDS011;2845;48.626;9.362;2024-03-23T08:19:12;0.10;;;0.10;;
5646;SDS011;2845;48.626;9.362;2024-03-23T08:21:44;0.10;;;0.00;;
5646;SDS011;2845;48.626;9.362;2024-03-23T08:24:18;0.40;;;0.10;;
5646;SDS011;2845;48.626;9.362;2024-03-23T08:26:51;0.43;;;0.00;;
5646;SDS011;2845;48.626;9.362;2024-03-23T08:29:24;0.10;;;0.10;;
5646;SDS011;2845;48.626;9.362;2024-03-23T08:31:57;0.63;;;0.10;;
5646;SDS011;2845;48.626;9.362;2024-03-23T08:34:32;0.43;;;0.00;;
5646;SDS011;2845;48.626;9.362;2024-03-23T08:37:04;0.82;;;0.17;;
5646;SDS011;2845;48.626;9.362;2024-03-23T08:39:37;0.30;;;0.10;;
5646;SDS011;2845;48.626;9.362;2024-03-23T08:42:09;0.65;;;0.10;;
5646;SDS011;2845;48.626;9.362;2024-03-23T08:44:42;0.00;;;0.00;;
5646;SDS011;2845;48.626;9.362;2024-03-23T08:47:19;0.45;;;0.20;;
5646;SDS011;2845;48.626;9.362;2024-03-23T08:49:52;2.47;;;0.30;;
5646;SDS011;2845;48.626;9.362;2024-03-23T08:52:24;0.52;;;0.28;;
5646;SDS011;2845;48.626;9.362;2024-03-23T08:55:00;1.10;;;0.30;;
5646;SDS011;2845;48.626;9.362;2024-03-23T08:57:32;1.45;;;0.40;;
5646;SDS011;2845;48.626;9.362;2024-03-23T09:00:06;2.28;;;0.32;;
5646;SDS011;2845;48.626;9.362;2024-03-23T09:02:41;1.52;;;0.47;;
5646;SDS011;2845;48.626;9.362;2024-03-23T09:05:14;0.50;;;0.25;;
5646;SDS011;2845;48.626;9.362;2024-03-23T09:07:47;1.40;;;0.30;;
5646;SDS011;2845;48.626;9.362;2024-03-23T09:10:20;1.33;;;0.30;;
5646;SDS011;2845;48.626;9.362;2024-03-23T09:12:53;0.65;;;0.20;;
5646;SDS011;2845;48.626;9.362;2024-03-23T09:15:27;1.33;;;0.40;;
5646;SDS011;2845;48.626;9.362;2024-03-23T09:18:01;0.90;;;0.40;;
5646;SDS011;2845;48.626;9.362;2024-03-23T09:20:35;0.38;;;0.28;;
5646;SDS011;2845;48.626;9.362;2024-03-23T09:23:07;2.42;;;0.40;;
5646;SDS011;2845;48.626;9.362;2024-03-23T09:25:41;0.57;;;0.20;;
5646;SDS011;2845;48.626;9.362;2024-03-23T09:28:13;0.35;;;0.20;;
5646;SDS011;2845;48.626;9.362;2024-03-23T09:30:46;1.73;;;0.28;;
5646;SDS011;2845;48.626;9.362;2024-03-23T09:33:20;0.88;;;0.40;;
5646;SDS011;2845;48.626;9.362;2024-03-23T09:35:53;0.95;;;0.52;;
5646;SDS011;2845;48.626;9.362;2024-03-23T09:38:26;0.93;;;0.30;;
5646;SDS011;2845;48.626;9.362;2024-03-23T09:40:59;0.70;;;0.40;;
5646;SDS011;2845;48.626;9.362;2024-03-23T09:43:32;2.55;;;0.57;;
5646;SDS011;2845;48.626;9.362;2024-03-23T09:46:05;1.02;;;0.30;;
5646;SDS011;2845;48.626;9.362;2024-03-23T09:48:40;1.95;;;0.57;;
5646;SDS011;2845;48.626;9.362;2024-03-23T09:51:15;1.27;;;0.70;;
5646;SDS011;2845;48.626;9.362;2024-03-23T09:53:49;2.00;;;0.57;;
5646;SDS011;2845;48.626;9.362;2024-03-23T09:56:24;1.27;;;0.50;;
5646;SDS011;2845;48.626;9.362;2024-03-23T09:59:00;2.53;;;0.68;;
5646;SDS011;2845;48.626;9.362;2024-03-23T10:01:55;2.38;;;0.68;;
5646;SDS011;2845;48.626;9.362;2024-03-23T10:04:37;3.80;;;0.70;;
5646;SDS011;2845;48.626;9.362;2024-03-23T10:07:10;3.30;;;0.55;;
5646;SDS011;2845;48.626;9.362;2024-03-23T10:09:44;1.30;;;0.50;;
5646;SDS011;2845;48.626;9.362;2024-03-23T10:12:18;4.68;;;0.93;;
5646;SDS011;2845;48.626;9.362;2024-03-23T10:14:53;7.35;;;0.90;;
5646;SDS011;2845;48.626;9.362;2024-03-23T10:17:25;5.20;;;0.90;;
5646;SDS011;2845;48.626;9.362;2024-03-23T10:20:00;3.63;;;1.15;;
5646;SDS011;2845;48.626;9.362;2024-03-23T10:22:36;3.95;;;0.70;;
5646;SDS011;2845;48.626;9.362;2024-03-23T10:25:11;3.17;;;0.82;;
5646;SDS011;2845;48.626;9.362;2024-03-23T10:27:45;4.85;;;1.00;;
5646;SDS011;2845;48.626;9.362;2024-03-23T10:30:32;5.05;;;0.70;;
5646;SDS011;2845;48.626;9.362;2024-03-23T10:33:09;2.83;;;0.80;;
5646;SDS011;2845;48.626;9.362;2024-03-23T10:35:44;2.97;;;1.02;;
5646;SDS011;2845;48.626;9.362;2024-03-23T10:38:18;3.65;;;0.75;;
5646;SDS011;2845;48.626;9.362;2024-03-23T10:40:52;2.38;;;0.80;;
5646;SDS011;2845;48.626;9.362;2024-03-23T10:43:25;2.05;;;0.90;;
5646;SDS011;2845;48.626;9.362;2024-03-23T10:45:58;1.70;;;0.52;;
5646;SDS011;2845;48.626;9.362;2024-03-23T10:48:32;3.60;;;1.10;;
5646;SDS011;2845;48.626;9.362;2024-03-23T10:54:13;1.98;;;0.60;;
5646;SDS011;2845;48.626;9.362;2024-03-23T10:56:47;2.22;;;1.10;;
5646;SDS011;2845;48.626;9.362;2024-03-23T10:59:24;2.85;;;0.88;;
5646;SDS011;2845;48.626;9.362;2024-03-23T11:01:58;4.97;;;0.85;;
5646;SDS011;2845;48.626;9.362;2024-03-23T11:04:34;5.10;;;0.90;;
5646;SDS011;2845;48.626;9.362;2024-03-23T11:10:06;3.70;;;1.00;;
5646;SDS011;2845;48.626;9.362;2024-03-23T11:15:55;2.25;;;0.30;;
5646;SDS011;2845;48.626;9.362;2024-03-23T11:18:29;2.30;;;0.40;;
5646;SDS011;2845;48.626;9.362;2024-03-23T11:21:01;1.08;;;0.40;;
5646;SDS011;2845;48.626;9.362;2024-03-23T11:23:44;0.70;;;0.32;;
5646;SDS011;2845;48.626;9.362;2024-03-23T11:26:17;0.75;;;0.30;;
5646;SDS011;2845;48.626;9.362;2024-03-23T11:28:50;1.02;;;0.40;;
5646;SDS011;2845;48.626;9.362;2024-03-23T11:31:24;0.25;;;0.10;;
5646;SDS011;2845;48.626;9.362;2024-03-23T11:34:02;1.13;;;0.20;;
5646;SDS011;2845;48.626;9.362;2024-03-23T11:36:35;1.02;;;0.50;;
5646;SDS011;2845;48.626;9.362;2024-03-23T11:39:13;2.17;;;0.45;;
5646;SDS011;2845;48.626;9.362;2024-03-23T11:41:48;1.13;;;0.30;;
5646;SDS011;2845;48.626;9.362;2024-03-23T11:44:23;0.22;;;0.10;;
5646;SDS011;2845;48.626;9.362;2024-03-23T11:47:06;1.05;;;0.20;;
5646;SDS011;2845;48.626;9.362;2024-03-23T11:49:42;1.20;;;0.38;;
5646;SDS011;2845;48.626;9.362;2024-03-23T11:52:14;2.15;;;0.60;;
5646;SDS011;2845;48.626;9.362;2024-03-23T11:54:50;2.28;;;0.40;;
5646;SDS011;2845;48.626;9.362;2024-03-23T11:57:23;1.63;;;0.40;;
5646;SDS011;2845;48.626;9.362;2024-03-23T11:59:57;1.40;;;0.40;;
5646;SDS011;2845;48.626;9.362;2024-03-23T12:02:29;2.20;;;0.80;;
5646;SDS011;2845;48.626;9.362;2024-03-23T12:05:13;1.50;;;0.50;;
5646;SDS011;2845;48.626;9.362;2024-03-23T12:07:46;1.90;;;0.50;;
5646;SDS011;2845;48.626;9.362;2024-03-23T12:10:21;2.47;;;0.68;;
5646;SDS011;2845;48.626;9.362;2024-03-23T12:13:00;1.40;;;0.35;;
5646;SDS011;2845;48.626;9.362;2024-03-23T12:15:33;0.90;;;0.32;;
5646;SDS011;2845;48.626;9.362;2024-03-23T12:18:06;1.98;;;0.60;;
5646;SDS011;2845;48.626;9.362;2024-03-23T12:20:40;3.45;;;0.93;;
5646;SDS011;2845;48.626;9.362;2024-03-23T12:23:12;0.75;;;0.32;;
5646;SDS011;2845;48.626;9.362;2024-03-23T12:25:48;3.53;;;0.47;;
5646;SDS011;2845;48.626;9.362;2024-03-23T12:28:20;1.50;;;0.40;;
5646;SDS011;2845;48.626;9.362;2024-03-23T12:30:53;3.67;;;1.10;;
5646;SDS011;2845;48.626;9.362;2024-03-23T12:33:26;2.50;;;0.65;;
5646;SDS011;2845;48.626;9.362;2024-03-23T12:35:59;1.40;;;0.50;;
5646;SDS011;2845;48.626;9.362;2024-03-23T12:38:31;1.02;;;0.22;;
5646;SDS011;2845;48.626;9.362;2024-03-23T12:41:05;1.80;;;0.82;;
5646;SDS011;2845;48.626;9.362;2024-03-23T12:43:38;2.25;;;0.60;;
5646;SDS011;2845;48.626;9.362;2024-03-23T12:46:11;2.55;;;0.60;;
5646;SDS011;2845;48.626;9.362;2024-03-23T12:48:44;1.08;;;0.40;;
5646;SDS011;2845;48.626;9.362;2024-03-23T12:51:17;1.20;;;0.28;;
5646;SDS011;2845;48.626;9.362;2024-03-23T12:53:49;7.28;;;0.63;;
5646;SDS011;2845;48.626;9.362;2024-03-23T12:56:24;0.95;;;0.35;;
5646;SDS011;2845;48.626;9.362;2024-03-23T12:58:56;2.47;;;0.70;;
5646;SDS011;2845;48.626;9.362;2024-03-23T13:01:29;2.15;;;0.50;;
5646;SDS011;2845;48.626;9.362;2024-03-23T13:04:02;3.25;;;0.60;;
5646;SDS011;2845;48.626;9.362;2024-03-23T13:06:35;1.35;;;0.50;;
5646;SDS011;2845;48.626;9.362;2024-03-23T13:09:07;2.17;;;0.68;;
5646;SDS011;2845;48.626;9.362;2024-03-23T13:11:42;2.42;;;0.65;;
5646;SDS011;2845;48.626;9.362;2024-03-23T13:14:14;1.52;;;0.60;;
5646;SDS011;2845;48.626;9.362;2024-03-23T13:16:48;2.70;;;0.75;;
5646;SDS011;2845;48.626;9.362;2024-03-23T13:19:20;3.53;;;0.73;;
5646;SDS011;2845;48.626;9.362;2024-03-23T13:21:58;2.03;;;0.63;;
5646;SDS011;2845;48.626;9.362;2024-03-23T13:24:31;1.92;;;0.60;;
5646;SDS011;2845;48.626;9.362;2024-03-23T13:27:06;2.00;;;0.65;;
5646;SDS011;2845;48.626;9.362;2024-03-23T13:29:39;1.58;;;0.47;;
5646;SDS011;2845;48.626;9.362;2024-03-23T13:32:12;1.55;;;0.60;;
5646;SDS011;2845;48.626;9.362;2024-03-23T13:34:45;2.30;;;0.52;;
5646;SDS011;2845;48.626;9.362;2024-03-23T13:37:21;5.35;;;0.85;;
5646;SDS011;2845;48.626;9.362;2024-03-23T13:39:53;2.75;;;0.50;;
5646;SDS011;2845;48.626;9.362;2024-03-23T13:42:28;2.05;;;0.63;;
5646;SDS011;2845;48.626;9.362;2024-03-23T13:45:00;1.75;;;0.52;;
5646;SDS011;2845;48.626;9.362;2024-03-23T13:47:34;4.05;;;0.70;;
5646;SDS011;2845;48.626;9.362;2024-03-23T13:50:06;2.03;;;0.65;;
5646;SDS011;2845;48.626;9.362;2024-03-23T13:52:40;1.85;;;0.63;;
5646;SDS011;2845;48.626;9.362;2024-03-23T13:55:13;0.68;;;0.30;;
5646;SDS011;2845;48.626;9.362;2024-03-23T13:57:48;0.65;;;0.20;;
5646;SDS011;2845;48.626;9.362;2024-03-23T14:00:22;2.15;;;0.40;;
5646;SDS011;2845;48.626;9.362;2024-03-23T14:02:55;4.65;;;0.40;;
5646;SDS011;2845;48.626;9.362;2024-03-23T14:05:27;0.82;;;0.20;;
5646;SDS011;2845;48.626;9.362;2024-03-23T14:08:00;1.80;;;0.30;;
5646;SDS011;2845;48.626;9.362;2024-03-23T14:10:32;1.23;;;0.30;;
5646;SDS011;2845;48.626;9.362;2024-03-23T14:13:08;2.95;;;0.30;;
5646;SDS011;2845;48.626;9.362;2024-03-23T14:15:40;1.23;;;0.35;;
5646;SDS011;2845;48.626;9.362;2024-03-23T14:18:13;1.55;;;0.63;;
5646;SDS011;2845;48.626;9.362;2024-03-23T14:20:46;3.22;;;0.40;;
5646;SDS011;2845;48.626;9.362;2024-03-23T14:23:19;1.65;;;0.70;;
5646;SDS011;2845;48.626;9.362;2024-03-23T14:25:52;1.13;;;0.30;;
5646;SDS011;2845;48.626;9.362;2024-03-23T14:28:27;0.65;;;0.25;;
5646;SDS011;2845;48.626;9.362;2024-03-23T14:31:00;2.03;;;0.30;;
5646;SDS011;2845;48.626;9.362;2024-03-23T14:33:34;3.03;;;0.70;;
5646;SDS011;2845;48.626;9.362;2024-03-23T14:36:06;1.05;;;0.22;;
5646;SDS011;2845;48.626;9.362;2024-03-23T14:38:40;1.05;;;0.38;;
5646;SDS011;2845;48.626;9.362;2024-03-23T14:41:12;0.90;;;0.20;;
5646;SDS011;2845;48.626;9.362;2024-03-23T14:43:47;1.17;;;0.20;;
5646;SDS011;2845;48.626;9.362;2024-03-23T14:46:21;0.77;;;0.30;;
5646;SDS011;2845;48.626;9.362;2024-03-23T14:48:55;1.60;;;0.40;;
5646;SDS011;2845;48.626;9.362;2024-03-23T14:51:27;1.58;;;0.30;;
5646;SDS011;2845;48.626;9.362;2024-03-23T14:54:01;0.45;;;0.30;;
5646;SDS011;2845;48.626;9.362;2024-03-23T14:56:34;2.15;;;0.30;;
5646;SDS011;2845;48.626;9.362;2024-03-23T14:59:08;2.47;;;0.55;;
5646;SDS011;2845;48.626;9.362;2024-03-23T15:01:41;1.75;;;0.45;;
5646;SDS011;2845;48.626;9.362;2024-03-23T15:04:14;2.95;;;0.68;;
5646;SDS011;2845;48.626;9.362;2024-03-23T15:06:47;1.02;;;0.30;;
5646;SDS011;2845;48.626;9.362;2024-03-23T15:09:21;1.75;;;0.40;;
5646;SDS011;2845;48.626;9.362;2024-03-23T15:11:55;0.57;;;0.20;;
5646;SDS011;2845;48.626;9.362;2024-03-23T15:14:29;1.92;;;0.43;;
5646;SDS011;2845;48.626;9.362;2024-03-23T15:17:02;2.80;;;0.30;;
5646;SDS011;2845;48.626;9.362;2024-03-23T15:19:38;0.95;;;0.30;;
5646;SDS011;2845;48.626;9.362;2024-03-23T15:22:13;0.95;;;0.30;;
5646;SDS011;2845;48.626;9.362;2024-03-23T15:24:45;1.35;;;0.35;;
5646;SDS011;2845;48.626;9.362;2024-03-23T15:27:19;0.63;;;0.15;;
5646;SDS011;2845;48.626;9.362;2024-03-23T15:29:52;0.95;;;0.25;;
5646;SDS011;2845;48.626;9.362;2024-03-23T15:32:25;0.85;;;0.32;;
5646;SDS011;2845;48.626;9.362;2024-03-23T15:34:57;1.25;;;0.22;;
5646;SDS011;2845;48.626;9.362;2024-03-23T15:37:31;1.75;;;0.20;;
5646;SDS011;2845;48.626;9.362;2024-03-23T15:40:04;1.00;;;0.22;;
5646;SDS011;2845;48.626;9.362;2024-03-23T15:42:38;0.43;;;0.10;;
5646;SDS011;2845;48.626;9.362;2024-03-23T15:45:12;0.77;;;0.20;;
5646;SDS011;2845;48.626;9.362;2024-03-23T15:47:45;0.47;;;0.20;;
5646;SDS011;2845;48.626;9.362;2024-03-23T15:50:17;0.75;;;0.13;;
5646;SDS011;2845;48.626;9.362;2024-03-23T15:52:50;0.28;;;0.10;;
5646;SDS011;2845;48.626;9.362;2024-03-23T15:55:22;0.93;;;0.22;;
5646;SDS011;2845;48.626;9.362;2024-03-23T15:57:55;1.10;;;0.17;;
5646;SDS011;2845;48.626;9.362;2024-03-23T16:00:29;0.47;;;0.20;;
5646;SDS011;2845;48.626;9.362;2024-03-23T16:03:02;1.05;;;0.10;;
5646;SDS011;2845;48.626;9.362;2024-03-23T16:05:35;1.67;;;0.28;;
5646;SDS011;2845;48.626;9.362;2024-03-23T16:08:08;0.50;;;0.20;;
5646;SDS011;2845;48.626;9.362;2024-03-23T16:10:40;1.23;;;0.38;;
5646;SDS011;2845;48.626;9.362;2024-03-23T16:13:13;0.47;;;0.10;;
5646;SDS011;2845;48.626;9.362;2024-03-23T16:15:53;1.17;;;0.40;;
5646;SDS011;2845;48.626;9.362;2024-03-23T16:18:27;1.05;;;0.30;;
5646;SDS011;2845;48.626;9.362;2024-03-23T16:21:00;0.20;;;0.15;;
5646;SDS011;2845;48.626;9.362;2024-03-23T16:23:34;0.93;;;0.30;;
5646;SDS011;2845;48.626;9.362;2024-03-23T16:26:08;0.80;;;0.30;;
5646;SDS011;2845;48.626;9.362;2024-03-23T16:28:43;4.25;;;0.85;;
5646;SDS011;2845;48.626;9.362;2024-03-23T16:31:18;0.75;;;0.57;;
5646;SDS011;2845;48.626;9.362;2024-03-23T16:33:51;2.65;;;1.42;;
5646;SDS011;2845;48.626;9.362;2024-03-23T16:36:23;3.10;;;0.77;;
5646;SDS011;2845;48.626;9.362;2024-03-23T16:38:57;1.58;;;0.40;;
5646;SDS011;2845;48.626;9.362;2024-03-23T16:41:29;2.78;;;0.80;;
5646;SDS011;2845;48.626;9.362;2024-03-23T16:44:03;0.40;;;0.20;;
5646;SDS011;2845;48.626;9.362;2024-03-23T16:46:36;3.20;;;0.20;;
5646;SDS011;2845;48.626;9.362;2024-03-23T16:49:10;0.73;;;0.30;;
5646;SDS011;2845;48.626;9.362;2024-03-23T16:51:42;0.30;;;0.30;;
5646;SDS011;2845;48.626;9.362;2024-03-23T16:54:15;2.47;;;1.02;;
5646;SDS011;2845;48.626;9.362;2024-03-23T16:56:47;4.95;;;2.35;;